Clenchwarton, United Kingdom
Current Conditions -  °F | °C
As of 1:50 AM on Monday 26 Jan 2015 (Local Time) from EGYM Reporting Station
Haze Haze  
Wind Chill: 39°   Ceiling: 1400
Heat Index: 45°   Visibility: 5mi
Dew Point: 45°   Wind: 10mph
Humidity: 100%   Direction: 210°SSW
Pressure: 30.15"   Gusts: NA
Location:  52.76°N, 0.36°E
Report Text: EGYM 260150Z AUTO 21009KT 8000 BR BKN014/// BKN018/// 07/07 Q1021
Loading
Personal Weather Stations






























Interactive Weather Map New forecast layout! Learn more

10-Day Weather Forecast

Advertisements
Track Severe Weather on mobile